Kansas City, Missouri
Traffic Map
Current Weather Conditions
Kansas City, Missouri
Clear
Clear
30°
Feels Like: 33°
Wind Chill: 30° Ceiling: Unl
Heat Index: 33° Visibility: 10mi
Dew Point: 22° Wind: 12mph
Humidity: 61% Direction: 180° (S)
Pressure: 29.97in Gusts: 0mph
Raw Report DataKMKC 051654Z 18010KT 10SM CLR 30/22 A2997 RMK AO2 SLP139 T03000217 $
Traffic Incident Summary
Active as of:
Severity:
Category:
InformationThere was an issue retrieving the traffic information for this location. Please try a different location or try again shortly.
Advertisements
Track Severe Weather on mobile